Time;durP1;ratioP1;P1;durP2;ratioP2;P2;SDS_P1;SDS_P2;PMS_P1;PMS_P2;Temp;Humidity;BMP_temperature;BMP_pressure;BME280_temperature;BME280_humidity;BME280_pressure;Samples;Min_cycle;Max_cycle;Signal;HPM_P1;HPM_P2
2022/11/04 00:01:52;;;;;;;75.33;3.63;;;13.10;1.00;;;;;;5071379;28;20457;-71
2022/11/04 00:04:21;;;;;;;59.40;3.40;;;13.30;1.00;;;;;;5071391;28;20729;-72
2022/11/04 00:06:48;;;;;;;58.57;3.60;;;13.50;1.00;;;;;;5071367;28;20520;-71
2022/11/04 00:09:17;;;;;;;58.80;3.50;;;13.50;1.00;;;;;;5070810;28;20455;-71
2022/11/04 00:14:30;;;;;;;59.00;3.57;;;13.10;1.00;;;;;;5071478;28;20430;-71
2022/11/04 00:30:57;;;;;;;58.77;3.43;;;13.50;1.00;;;;;;5056139;28;20431;-71
2022/11/04 00:33:24;;;;;;;58.70;3.50;;;13.50;1.00;;;;;;5074682;28;20443;-71
2022/11/04 00:35:52;;;;;;;58.50;3.23;;;13.50;1.00;;;;;;5074552;28;20451;-71
2022/11/04 00:38:19;;;;;;;58.90;3.53;;;13.50;1.00;;;;;;5074732;28;20822;-71
2022/11/04 00:40:46;;;;;;;60.67;3.50;;;13.50;1.00;;;;;;5074350;28;20453;-71
2022/11/04 00:43:12;;;;;;;59.73;3.50;;;13.50;1.00;;;;;;5074621;28;20449;-71
2022/11/04 00:45:41;;;;;;;60.70;3.90;;;13.40;1.00;;;;;;5074484;28;20455;-71
2022/11/04 00:48:07;;;;;;;59.27;3.60;;;13.40;1.00;;;;;;5074475;28;20463;-70
2022/11/04 00:50:36;;;;;;;59.70;3.70;;;13.40;1.00;;;;;;5073561;28;20443;-71
2022/11/04 00:53:03;;;;;;;58.93;3.57;;;13.10;1.00;;;;;;5074567;28;20455;-71
2022/11/04 00:55:30;;;;;;;60.17;3.90;;;12.90;1.00;;;;;;5074559;28;20454;-70
2022/11/04 00:57:58;;;;;;;58.50;3.53;;;12.70;1.00;;;;;;5074146;28;20499;-71
2022/11/04 01:00:24;;;;;;;59.63;3.60;;;13.00;1.00;;;;;;5073463;28;20451;-71
2022/11/04 01:02:51;;;;;;;59.53;3.80;;;13.10;1.00;;;;;;5074097;28;20826;-70
2022/11/04 01:05:18;;;;;;;58.77;3.80;;;13.20;1.00;;;;;;5074315;28;20452;-70
2022/11/04 01:07:46;;;;;;;58.83;3.77;;;13.10;1.00;;;;;;5073887;28;20487;-71
2022/11/04 01:10:13;;;;;;;60.33;3.20;;;13.00;1.00;;;;;;5073580;28;20458;-71
2022/11/04 01:12:40;;;;;;;58.97;3.50;;;12.90;1.00;;;;;;5073935;28;20458;-71
2022/11/04 01:15:07;;;;;;;59.07;3.90;;;12.90;1.00;;;;;;5073932;28;20573;-71
2022/11/04 01:17:34;;;;;;;58.60;3.60;;;13.00;1.00;;;;;;5073775;28;20467;-70
2022/11/04 01:20:01;;;;;;;58.20;3.20;;;13.10;1.00;;;;;;5073465;28;20448;-71
2022/11/04 01:22:28;;;;;;;59.43;3.77;;;12.90;1.00;;;;;;5073835;28;20466;-71
2022/11/04 01:24:56;;;;;;;60.37;3.67;;;12.60;1.00;;;;;;5073845;28;20447;-71
2022/11/04 01:27:23;;;;;;;58.60;3.50;;;12.60;1.00;;;;;;5073497;28;20483;-71
2022/11/04 01:29:50;;;;;;;58.40;3.50;;;12.70;1.00;;;;;;5072952;28;20850;-70
2022/11/04 01:32:17;;;;;;;58.60;3.40;;;13.00;1.00;;;;;;5073807;28;20473;-70
2022/11/04 01:34:43;;;;;;;60.37;3.30;;;12.90;1.00;;;;;;5073762;28;20451;-71
2022/11/04 01:37:11;;;;;;;59.17;3.10;;;12.90;1.00;;;;;;5073539;28;20467;-70
2022/11/04 01:39:37;;;;;;;59.47;3.40;;;12.80;1.00;;;;;;5072827;28;20496;-71
2022/11/04 01:42:05;;;;;;;58.93;3.57;;;12.70;1.00;;;;;;5073450;28;20454;-70
2022/11/04 01:44:51;;;;;;;58.37;3.27;;;12.70;1.00;;;;;;5073217;28;20454;-71
2022/11/04 01:47:21;;;;;;;58.40;3.20;;;12.40;1.00;;;;;;5073333;28;20509;-70
2022/11/04 01:49:52;;;;;;;58.70;3.50;;;12.50;1.00;;;;;;5072611;28;20454;-70
2022/11/04 01:52:27;;;;;;;59.07;3.20;;;12.50;1.00;;;;;;5073496;28;20447;-70
2022/11/04 01:54:57;;;;;;;58.87;3.10;;;12.30;1.00;;;;;;5073320;28;20529;-70
2022/11/04 01:57:30;;;;;;;57.87;2.83;;;12.10;1.00;;;;;;5073473;28;20463;-70
2022/11/04 02:00:01;;;;;;;58.90;3.20;;;12.00;1.00;;;;;;5072486;28;20450;-71
2022/11/04 02:02:28;;;;;;;58.40;2.90;;;12.00;1.00;;;;;;5073125;28;20458;-70
2022/11/04 02:04:55;;;;;;;59.37;2.90;;;12.00;1.00;;;;;;5072919;28;20447;-71
2022/11/04 02:07:22;;;;;;;58.50;3.20;;;12.00;1.00;;;;;;5072615;28;20513;-70
2022/11/04 02:09:49;;;;;;;58.27;3.10;;;12.00;1.00;;;;;;5072297;28;20451;-71
2022/11/04 02:15:03;;;;;;;59.13;3.37;;;12.00;1.00;;;;;;5072927;28;20426;-71
2022/11/04 02:17:41;;;;;;;59.13;2.90;;;12.00;1.00;;;;;;5072666;28;20467;-71
2022/11/04 02:20:23;;;;;;;58.10;2.80;;;12.30;1.00;;;;;;5072140;28;20443;-71
2022/11/04 02:23:23;;;;;;;59.33;2.60;;;12.50;1.00;;;;;;5072466;28;20458;-70
2022/11/04 02:26:22;;;;;;;58.43;3.40;;;12.70;1.00;;;;;;5072743;28;20458;-71
2022/11/04 02:29:15;;;;;;;57.90;3.00;;;12.60;1.00;;;;;;5051139;28;20475;-71
2022/11/04 02:31:51;;;;;;;58.20;3.00;;;12.10;1.00;;;;;;5072414;28;20450;-71
2022/11/04 02:34:26;;;;;;;58.10;3.00;;;12.00;1.00;;;;;;5072588;28;20451;-71
2022/11/04 02:37:02;;;;;;;57.97;2.93;;;11.90;1.00;;;;;;5072263;28;20987;-70
2022/11/04 02:39:38;;;;;;;58.33;2.83;;;11.90;1.00;;;;;;5071697;28;20443;-70
2022/11/04 02:42:11;;;;;;;58.17;2.90;;;12.20;1.00;;;;;;5072331;28;20533;-71
2022/11/04 02:44:46;;;;;;;58.33;2.83;;;12.60;1.00;;;;;;5072348;28;20454;-70
2022/11/04 02:47:16;;;;;;;59.17;3.30;;;12.50;1.00;;;;;;5072307;28;20487;-71
2022/11/04 02:49:51;;;;;;;58.10;2.83;;;12.40;1.00;;;;;;5071601;28;20469;-71
2022/11/04 02:52:21;;;;;;;58.67;3.00;;;12.20;1.00;;;;;;5072325;28;20447;-71
2022/11/04 02:54:53;;;;;;;59.00;2.90;;;12.10;1.00;;;;;;5067558;28;20534;-71
2022/11/04 02:57:24;;;;;;;58.00;3.10;;;11.90;1.00;;;;;;5072151;28;20471;-71
2022/11/04 02:59:56;;;;;;;60.10;3.00;;;12.30;1.00;;;;;;5071404;28;20455;-71
2022/11/04 03:02:28;;;;;;;58.47;3.03;;;12.10;1.00;;;;;;5072293;28;20531;-70
2022/11/04 03:04:57;;;;;;;59.40;2.83;;;12.00;1.00;;;;;;5071894;28;20456;-70
2022/11/04 03:07:29;;;;;;;58.70;2.80;;;11.90;1.00;;;;;;5072403;28;20867;-71
2022/11/04 03:10:01;;;;;;;58.80;3.30;;;12.20;1.00;;;;;;5071268;28;20967;-70
2022/11/04 03:12:32;;;;;;;58.03;2.67;;;12.00;1.00;;;;;;5072090;28;20451;-70
2022/11/04 03:15:04;;;;;;;58.77;3.23;;;12.30;1.00;;;;;;5071953;28;20473;-70
2022/11/04 03:17:35;;;;;;;58.80;3.20;;;12.50;1.00;;;;;;5071912;28;20464;-71
2022/11/04 03:20:06;;;;;;;58.47;3.07;;;12.60;1.00;;;;;;5071477;28;20447;-71
2022/11/04 03:22:35;;;;;;;58.53;2.97;;;12.60;1.00;;;;;;5071975;28;20459;-70
2022/11/04 03:25:04;;;;;;;58.23;3.00;;;12.60;1.00;;;;;;5071871;28;20951;-71
2022/11/04 03:27:38;;;;;;;59.03;2.97;;;12.70;1.00;;;;;;5071559;28;20493;-71
2022/11/04 03:30:09;;;;;;;58.53;2.80;;;12.70;1.00;;;;;;5070885;28;20451;-71
2022/11/04 03:32:42;;;;;;;58.17;3.00;;;12.70;1.00;;;;;;5071866;28;20481;-71
2022/11/04 03:35:10;;;;;;;58.40;3.10;;;12.70;1.00;;;;;;5071843;28;20546;-71
2022/11/04 03:37:37;;;;;;;60.17;2.97;;;12.60;1.00;;;;;;5071599;28;20660;-70
2022/11/04 03:40:05;;;;;;;63.70;3.10;;;12.60;1.00;;;;;;5070810;28;20451;-71
2022/11/04 03:42:34;;;;;;;58.30;3.27;;;12.60;1.00;;;;;;5071636;28;20447;-71
2022/11/04 03:45:01;;;;;;;58.80;3.37;;;12.60;1.00;;;;;;5072130;28;20447;-72
2022/11/04 03:47:30;;;;;;;59.57;3.50;;;12.50;1.00;;;;;;5071864;28;20488;-71
2022/11/04 03:50:04;;;;;;;58.73;3.43;;;12.50;1.00;;;;;;5071058;28;20451;-71
2022/11/04 03:52:31;;;;;;;58.40;3.00;;;12.40;1.00;;;;;;5071992;28;20447;-71
2022/11/04 03:54:58;;;;;;;61.63;3.30;;;12.40;1.00;;;;;;5071737;28;20447;-71
2022/11/04 03:57:43;;;;;;;59.53;3.30;;;12.30;1.00;;;;;;5071946;28;20508;-71
2022/11/04 04:00:12;;;;;;;59.40;3.13;;;12.20;1.00;;;;;;5071165;28;20447;-71
2022/11/04 04:02:51;;;;;;;59.17;3.50;;;12.20;1.00;;;;;;5071713;28;20450;-71
2022/11/04 04:05:22;;;;;;;59.07;3.30;;;12.20;1.00;;;;;;5072432;28;20451;-70
2022/11/04 04:07:53;;;;;;;59.90;2.80;;;12.20;1.00;;;;;;5075952;28;20506;-71
2022/11/04 04:10:39;;;;;;;58.80;3.37;;;12.10;1.00;;;;;;5075154;28;20532;-71
2022/11/04 04:13:17;;;;;;;58.60;3.20;;;12.10;1.00;;;;;;5075500;28;20470;-71
2022/11/04 04:15:49;;;;;;;58.73;3.27;;;12.10;1.00;;;;;;5075435;28;20458;-71
2022/11/04 04:18:23;;;;;;;58.53;3.17;;;12.10;1.00;;;;;;5075385;28;20459;-71
2022/11/04 04:20:54;;;;;;;58.70;3.20;;;12.10;1.00;;;;;;5074821;28;20457;-71
2022/11/04 04:29:00;;;;;;;58.37;3.37;;;12.10;1.00;;;;;;5074502;28;20935;-72
2022/11/04 04:34:14;;;;;;;58.83;3.27;;;12.00;1.00;;;;;;5074809;28;20565;-71
2022/11/04 04:36:46;;;;;;;60.03;3.30;;;12.00;1.00;;;;;;5074506;28;20458;-70
2022/11/04 04:45:02;;;;;;;58.70;3.60;;;11.90;1.00;;;;;;5012573;28;20429;-70
2022/11/04 04:47:36;;;;;;;60.80;3.63;;;11.80;1.00;;;;;;5047939;28;20489;-71
2022/11/04 04:50:06;;;;;;;58.73;3.63;;;11.80;1.00;;;;;;5073876;28;20450;-70
2022/11/04 04:52:36;;;;;;;58.87;3.20;;;11.80;1.00;;;;;;5074242;28;20464;-70
2022/11/04 04:55:03;;;;;;;59.27;3.53;;;11.70;1.00;;;;;;5074291;28;21023;-71
2022/11/04 04:57:30;;;;;;;59.67;3.83;;;11.60;1.00;;;;;;5074137;28;20486;-71
2022/11/04 04:59:57;;;;;;;59.50;3.43;;;11.60;1.00;;;;;;5073502;28;20457;-71
2022/11/04 05:02:23;;;;;;;58.83;3.70;;;11.60;1.00;;;;;;5074118;28;20841;-70
2022/11/04 05:04:50;;;;;;;59.73;3.70;;;11.70;1.00;;;;;;5074302;28;20884;-70
2022/11/04 05:07:18;;;;;;;63.07;4.27;;;11.70;1.00;;;;;;5074014;28;20483;-71
2022/11/04 05:09:45;;;;;;;60.00;4.13;;;11.60;1.00;;;;;;5073122;28;20941;-71
2022/11/04 05:12:12;;;;;;;60.30;4.30;;;11.60;1.00;;;;;;5073987;28;20455;-70
2022/11/04 05:14:39;;;;;;;60.43;3.63;;;11.60;1.00;;;;;;5074135;28;20455;-71
2022/11/04 05:17:06;;;;;;;59.30;3.77;;;11.60;1.00;;;;;;5073798;28;20467;-71
2022/11/04 05:19:33;;;;;;;60.27;3.87;;;11.60;1.00;;;;;;5073097;28;20451;-70
2022/11/04 05:21:59;;;;;;;58.90;3.50;;;11.60;1.00;;;;;;5073751;28;20454;-70
2022/11/04 05:24:28;;;;;;;59.57;4.17;;;11.60;1.00;;;;;;5073617;28;20942;-71
2022/11/04 05:26:54;;;;;;;63.90;4.00;;;11.50;1.00;;;;;;5073846;28;20840;-71
2022/11/04 05:29:21;;;;;;;59.27;3.57;;;11.50;1.00;;;;;;5073232;28;20450;-70
2022/11/04 05:31:48;;;;;;;60.30;3.40;;;11.40;1.00;;;;;;5073608;28;20453;-70
2022/11/04 05:34:15;;;;;;;60.17;3.90;;;11.40;1.00;;;;;;5073653;28;20458;-71
2022/11/04 05:36:42;;;;;;;59.57;3.93;;;11.40;1.00;;;;;;5073372;28;20455;-72
2022/11/04 05:39:12;;;;;;;59.00;3.50;;;11.40;1.00;;;;;;5072684;28;20931;-70
2022/11/04 05:41:40;;;;;;;58.73;3.60;;;11.30;1.00;;;;;;5073470;28;20940;-70
2022/11/04 05:44:09;;;;;;;60.03;4.10;;;11.30;1.00;;;;;;5073550;28;20461;-70
2022/11/04 05:46:36;;;;;;;59.30;3.60;;;11.30;1.00;;;;;;5073455;28;20447;-70
2022/11/04 05:49:03;;;;;;;59.07;3.70;;;11.20;1.00;;;;;;5072590;28;20482;-70
2022/11/04 05:51:30;;;;;;;59.13;3.80;;;11.20;1.00;;;;;;5073091;28;20461;-71
2022/11/04 05:53:57;;;;;;;58.97;3.67;;;11.20;1.00;;;;;;5073350;28;20446;-70
2022/11/04 05:56:24;;;;;;;59.10;3.93;;;11.20;1.00;;;;;;5073129;28;20461;-70
2022/11/04 05:58:52;;;;;;;61.00;4.10;;;11.20;1.00;;;;;;5072394;28;20470;-71
2022/11/04 06:01:33;;;;;;;59.70;4.00;;;11.20;1.00;;;;;;5073253;28;20457;-71
2022/11/04 06:04:01;;;;;;;61.97;4.43;;;11.20;1.00;;;;;;5072998;28;20452;-71
2022/11/04 06:06:30;;;;;;;61.13;4.83;;;11.20;1.00;;;;;;5073149;28;20458;-72
2022/11/04 06:08:57;;;;;;;59.83;4.63;;;11.20;1.00;;;;;;5072294;28;20581;-71
2022/11/04 06:11:26;;;;;;;58.87;4.37;;;11.20;1.00;;;;;;5073002;28;20541;-70
2022/11/04 06:13:55;;;;;;;60.23;5.03;;;11.20;1.00;;;;;;5073109;28;20454;-70
2022/11/04 06:16:23;;;;;;;59.10;4.40;;;11.20;1.00;;;;;;5072753;28;20837;-70
2022/11/04 06:18:50;;;;;;;60.57;4.50;;;11.10;1.00;;;;;;5072135;28;20467;-71
2022/11/04 06:21:24;;;;;;;61.50;5.77;;;11.10;1.00;;;;;;5072929;28;20442;-70
2022/11/04 06:23:52;;;;;;;64.10;6.10;;;11.10;1.00;;;;;;5072491;28;20476;-70
2022/11/04 06:26:19;;;;;;;62.17;5.07;;;11.10;1.00;;;;;;5072668;28;20445;-70
2022/11/04 06:28:46;;;;;;;59.67;4.30;;;11.10;1.00;;;;;;5071008;28;20483;-71
2022/11/04 06:31:14;;;;;;;65.30;6.50;;;11.10;1.00;;;;;;5072466;28;20456;-70
2022/11/04 06:33:42;;;;;;;60.47;5.50;;;11.00;1.00;;;;;;5072378;28;20964;-71
2022/11/04 06:36:12;;;;;;;62.97;5.53;;;10.80;1.00;;;;;;5072610;28;20447;-70
2022/11/04 06:38:39;;;;;;;61.43;5.57;;;10.60;1.00;;;;;;5071566;28;20462;-71
2022/11/04 06:41:06;;;;;;;59.17;5.00;;;10.60;1.00;;;;;;5072373;28;20458;-70
2022/11/04 06:43:33;;;;;;;61.90;6.27;;;10.80;1.00;;;;;;5072369;28;20447;-70
2022/11/04 06:46:01;;;;;;;61.43;5.00;;;10.70;1.00;;;;;;5072137;28;20454;-71
2022/11/04 06:48:30;;;;;;;60.93;4.90;;;10.80;1.00;;;;;;5071866;28;20629;-71
2022/11/04 06:50:58;;;;;;;59.80;4.97;;;11.00;1.00;;;;;;5071871;28;20477;-71
2022/11/04 06:53:25;;;;;;;60.10;5.40;;;11.10;1.00;;;;;;5072228;28;20450;-71
2022/11/04 06:55:52;;;;;;;61.07;5.80;;;11.20;1.00;;;;;;5072117;28;20452;-70
2022/11/04 06:58:19;;;;;;;64.07;6.50;;;11.30;1.00;;;;;;5071821;28;20467;-71
2022/11/04 07:00:52;;;;;;;62.40;6.03;;;11.30;1.00;;;;;;5071525;28;20458;-71
2022/11/04 07:03:19;;;;;;;61.00;5.50;;;11.40;1.00;;;;;;5072049;28;20461;-70
2022/11/04 07:05:47;;;;;;;62.80;5.80;;;11.40;1.00;;;;;;5071951;28;20833;-70
2022/11/04 07:08:14;;;;;;;62.60;6.10;;;11.50;1.00;;;;;;5071652;28;21080;-71
2022/11/04 07:10:41;;;;;;;60.63;5.23;;;11.40;1.00;;;;;;5071615;28;20454;-71
2022/11/04 07:13:07;;;;;;;62.40;5.83;;;11.50;1.00;;;;;;5071836;28;21017;-70
2022/11/04 07:15:34;;;;;;;62.67;5.70;;;11.50;1.00;;;;;;5071966;28;20441;-71
2022/11/04 07:18:01;;;;;;;63.70;6.20;;;11.60;1.00;;;;;;5071887;28;20518;-71
2022/11/04 07:20:28;;;;;;;63.20;6.37;;;11.60;1.00;;;;;;5071204;28;20493;-70
2022/11/04 07:22:56;;;;;;;64.10;6.63;;;11.70;1.00;;;;;;5071770;28;20467;-71
2022/11/04 07:25:23;;;;;;;63.57;6.37;;;11.80;1.00;;;;;;5071663;28;20465;-71
2022/11/04 07:27:50;;;;;;;65.03;6.90;;;11.80;1.00;;;;;;5071863;28;20490;-70
2022/11/04 07:30:19;;;;;;;65.63;6.30;;;11.80;1.00;;;;;;5071061;28;20456;-71
2022/11/04 07:32:46;;;;;;;62.50;6.57;;;11.80;1.00;;;;;;5071797;28;20454;-70
2022/11/04 07:35:13;;;;;;;65.77;6.13;;;11.90;1.00;;;;;;5071664;28;20451;-70
2022/11/04 07:37:40;;;;;;;61.90;6.23;;;11.90;1.00;;;;;;5071497;28;20477;-71
2022/11/04 07:40:09;;;;;;;63.40;6.70;;;11.80;1.00;;;;;;5072845;28;20454;-71
2022/11/04 07:42:36;;;;;;;66.47;6.60;;;11.90;1.00;;;;;;5075872;28;20447;-70
2022/11/04 07:45:04;;;;;;;62.07;6.50;;;12.00;1.00;;;;;;5075826;28;20817;-71
2022/11/04 07:47:31;;;;;;;64.50;6.60;;;12.00;1.00;;;;;;5075551;28;20474;-70
2022/11/04 07:49:57;;;;;;;63.80;6.47;;;12.10;1.00;;;;;;5074826;28;20443;-71
2022/11/04 07:52:25;;;;;;;61.40;6.10;;;12.20;1.00;;;;;;5075391;28;20457;-70
2022/11/04 07:54:51;;;;;;;63.47;6.17;;;12.30;1.00;;;;;;5075628;28;20450;-71
2022/11/04 07:57:20;;;;;;;62.67;5.83;;;12.40;1.00;;;;;;5075476;28;20475;-70
2022/11/04 07:59:47;;;;;;;62.27;5.83;;;12.50;1.00;;;;;;5074517;28;20821;-71
2022/11/04 08:02:13;;;;;;;62.07;6.27;;;12.60;1.00;;;;;;5075414;28;20451;-71
2022/11/04 08:04:40;;;;;;;62.40;5.50;;;12.70;1.00;;;;;;5075209;28;20443;-71
2022/11/04 08:07:08;;;;;;;62.20;5.87;;;12.80;1.00;;;;;;5075129;28;20459;-70
2022/11/04 08:09:36;;;;;;;64.07;5.90;;;12.90;1.00;;;;;;5074539;28;20487;-71
2022/11/04 08:12:04;;;;;;;60.97;5.60;;;13.00;1.00;;;;;;5075275;28;20797;-70
2022/11/04 08:14:32;;;;;;;66.83;8.23;;;13.20;1.00;;;;;;5075060;28;20935;-70
2022/11/04 08:16:59;;;;;;;66.53;10.03;;;13.40;1.00;;;;;;5074968;28;20474;-71
2022/11/04 08:19:26;;;;;;;66.97;10.20;;;13.50;1.00;;;;;;5074168;28;20447;-71
2022/11/04 08:21:53;;;;;;;63.27;7.30;;;13.70;1.00;;;;;;5075359;28;20477;-71
2022/11/04 08:24:20;;;;;;;62.33;6.07;;;13.80;1.00;;;;;;5075037;28;20955;-72
2022/11/04 08:26:47;;;;;;;63.87;7.50;;;13.90;1.00;;;;;;5074774;28;21013;-70
2022/11/04 08:29:14;;;;;;;63.80;6.50;;;14.00;1.00;;;;;;5074013;28;20483;-71
2022/11/04 08:31:42;;;;;;;64.23;5.80;;;14.20;1.00;;;;;;5074819;28;20447;-70
2022/11/04 08:34:09;;;;;;;62.30;4.93;;;14.10;1.00;;;;;;5074984;28;20443;-71
2022/11/04 08:36:39;;;;;;;60.57;4.50;;;14.00;1.00;;;;;;5074549;28;20546;-71
2022/11/04 08:39:08;;;;;;;59.47;4.07;;;14.00;1.00;;;;;;5073951;28;20538;-71
2022/11/04 08:41:37;;;;;;;61.70;4.47;;;14.00;1.00;;;;;;5074642;28;20448;-71
2022/11/04 08:44:05;;;;;;;59.73;4.50;;;13.40;1.00;;;;;;5074583;28;20448;-71
2022/11/04 08:46:33;;;;;;;59.47;3.90;;;13.00;1.00;;;;;;5074388;28;20452;-71
2022/11/04 08:49:02;;;;;;;64.00;4.40;;;13.10;1.00;;;;;;5073971;28;20851;-71
2022/11/04 08:51:31;;;;;;;59.77;4.40;;;13.40;1.00;;;;;;5074040;28;20454;-71
2022/11/04 08:53:58;;;;;;;60.23;4.67;;;13.10;1.00;;;;;;5074491;28;20453;-71
2022/11/04 08:56:27;;;;;;;60.80;4.07;;;13.00;1.00;;;;;;5074417;28;20451;-71
2022/11/04 08:58:54;;;;;;;61.07;4.03;;;13.40;1.00;;;;;;5073462;28;20447;-71
2022/11/04 09:01:22;;;;;;;60.03;4.10;;;13.60;1.00;;;;;;5074171;28;20456;-72
2022/11/04 09:03:49;;;;;;;60.80;4.30;;;13.90;1.00;;;;;;5074329;28;20443;-70
2022/11/04 09:06:19;;;;;;;61.30;4.50;;;13.90;1.00;;;;;;5074360;28;20905;-71
2022/11/04 09:08:47;;;;;;;60.17;4.23;;;13.90;1.00;;;;;;5073363;28;20483;-71
2022/11/04 09:11:15;;;;;;;63.17;4.00;;;13.80;1.00;;;;;;5074238;28;20962;-71
2022/11/04 09:13:43;;;;;;;59.80;4.00;;;13.50;1.00;;;;;;5073995;28;20456;-71
2022/11/04 09:16:11;;;;;;;59.87;4.03;;;13.60;1.00;;;;;;5074199;28;20538;-72
2022/11/04 09:18:39;;;;;;;64.77;3.90;;;13.40;1.00;;;;;;5073041;28;20459;-71
2022/11/04 09:21:07;;;;;;;60.67;4.20;;;13.30;1.00;;;;;;5073839;28;20458;-71
2022/11/04 09:23:36;;;;;;;60.77;4.23;;;13.40;1.00;;;;;;5073764;28;20459;-71
2022/11/04 09:26:08;;;;;;;61.50;4.67;;;13.60;1.00;;;;;;5073992;28;20448;-71
2022/11/04 09:28:35;;;;;;;59.40;3.93;;;13.80;1.00;;;;;;5072998;28;20497;-71
2022/11/04 09:31:06;;;;;;;60.67;4.23;;;14.00;1.00;;;;;;5073616;28;20456;-71
2022/11/04 09:33:33;;;;;;;67.20;4.40;;;14.00;1.00;;;;;;5073907;28;20440;-71
2022/11/04 09:36:00;;;;;;;60.47;4.37;;;14.20;1.00;;;;;;5073686;28;20448;-73
2022/11/04 09:38:27;;;;;;;60.40;4.10;;;14.00;1.00;;;;;;5073226;28;21014;-71
2022/11/04 09:40:56;;;;;;;60.40;3.40;;;14.10;1.00;;;;;;5073273;28;20448;-71
2022/11/04 09:43:36;;;;;;;59.90;3.80;;;14.00;1.00;;;;;;5073587;28;20447;-71
2022/11/04 09:46:03;;;;;;;60.80;3.40;;;13.70;1.00;;;;;;5073411;28;20501;-71
2022/11/04 09:48:36;;;;;;;58.57;3.57;;;13.60;1.00;;;;;;5072816;28;20482;-72
2022/11/04 09:51:06;;;;;;;59.00;3.00;;;13.60;1.00;;;;;;5072899;28;20824;-71
2022/11/04 09:53:40;;;;;;;59.77;3.10;;;13.70;1.00;;;;;;5073239;28;20957;-72
2022/11/04 09:56:15;;;;;;;58.87;3.27;;;14.00;1.00;;;;;;5073383;28;20455;-72
2022/11/04 09:58:42;;;;;;;58.37;3.00;;;14.20;1.00;;;;;;5072356;28;21069;-71
2022/11/04 10:01:21;;;;;;;58.60;3.40;;;14.20;1.00;;;;;;5073145;28;20548;-71
2022/11/04 10:04:01;;;;;;;58.37;3.17;;;14.20;1.00;;;;;;5071968;28;20997;-71
2022/11/04 10:06:36;;;;;;;58.27;3.10;;;14.40;1.00;;;;;;5073169;28;20462;-71
2022/11/04 10:09:16;;;;;;;58.40;2.90;;;14.50;1.00;;;;;;5072312;28;20490;-71
2022/11/04 10:11:52;;;;;;;58.70;2.67;;;14.50;1.00;;;;;;5072888;28;20513;-71
2022/11/04 10:14:37;;;;;;;58.40;2.97;;;14.80;1.00;;;;;;5073056;28;20468;-71
2022/11/04 10:17:14;;;;;;;62.83;3.30;;;14.90;1.00;;;;;;5072965;28;20467;-71
2022/11/04 10:19:55;;;;;;;58.60;3.10;;;15.40;1.00;;;;;;5072048;28;20926;-71
2022/11/04 10:22:31;;;;;;;59.37;3.37;;;16.40;1.00;;;;;;5072534;28;20884;-71
2022/11/04 10:25:04;;;;;;;61.70;3.27;;;17.50;1.00;;;;;;5072865;28;20481;-71
2022/11/04 10:27:36;;;;;;;59.40;3.30;;;17.50;99.90;;;;;;5072755;28;20463;-71
2022/11/04 10:30:07;;;;;;;59.47;3.60;;;18.50;99.90;;;;;;5071794;28;20489;-71
2022/11/04 10:32:40;;;;;;;59.20;3.50;;;18.20;99.90;;;;;;5072458;28;20501;-72
2022/11/04 10:35:18;;;;;;;58.30;2.73;;;18.20;99.90;;;;;;5072654;28;20504;-71
2022/11/04 10:37:47;;;;;;;58.60;3.33;;;18.60;99.90;;;;;;5072281;28;20473;-71
2022/11/04 10:40:24;;;;;;;58.67;3.20;;;18.80;99.90;;;;;;5071665;28;20444;-72
2022/11/04 10:42:53;;;;;;;58.27;2.80;;;19.40;99.90;;;;;;5072389;28;20448;-71
2022/11/04 10:45:25;;;;;;;61.50;3.17;;;18.70;99.90;;;;;;5072141;28;20458;-71
2022/11/04 10:47:59;;;;;;;59.80;3.03;;;19.50;99.90;;;;;;5072095;28;21002;-71
2022/11/04 10:50:30;;;;;;;59.80;3.40;;;20.60;99.90;;;;;;5071637;28;20906;-71
2022/11/04 10:53:11;;;;;;;58.90;3.30;;;21.10;99.90;;;;;;5072115;28;20454;-71
2022/11/04 10:55:42;;;;;;;59.07;3.23;;;20.80;99.90;;;;;;5072104;28;20650;-71
2022/11/04 10:58:17;;;;;;;58.97;2.80;;;19.90;99.90;;;;;;5071867;28;21047;-72
2022/11/04 11:00:44;;;;;;;59.80;3.37;;;20.10;99.90;;;;;;5071315;28;20449;-72
2022/11/04 11:03:29;;;;;;;66.80;3.60;;;19.90;99.90;;;;;;5072010;28;20823;-71
2022/11/04 11:06:13;;;;;;;62.47;3.13;;;19.20;99.90;;;;;;5072011;28;20458;-72
2022/11/04 11:08:41;;;;;;;59.90;3.43;;;19.60;99.90;;;;;;5071271;28;20475;-71
2022/11/04 11:11:08;;;;;;;58.00;3.00;;;18.70;99.90;;;;;;5072131;28;20451;-71
2022/11/04 11:13:39;;;;;;;58.30;2.97;;;18.30;99.90;;;;;;5071915;28;20534;-72
2022/11/04 11:16:10;;;;;;;59.87;3.30;;;18.50;99.90;;;;;;5071642;28;20443;-71
2022/11/04 11:18:38;;;;;;;59.60;3.30;;;18.60;99.90;;;;;;5070814;28;20489;-71
2022/11/04 11:21:09;;;;;;;60.27;3.27;;;18.60;99.90;;;;;;5071806;28;20960;-72
2022/11/04 11:23:42;;;;;;;59.17;3.23;;;18.90;99.90;;;;;;5071652;28;20952;-71
2022/11/04 11:26:12;;;;;;;59.67;3.53;;;17.40;99.90;;;;;;5071870;28;20478;-71
2022/11/04 11:28:41;;;;;;;62.23;3.70;;;16.40;99.90;;;;;;5070798;28;20466;-72
2022/11/04 11:31:15;;;;;;;60.40;3.60;;;15.90;99.90;;;;;;5071515;28;20457;-71
2022/11/04 11:33:48;;;;;;;60.53;3.53;;;15.30;99.90;;;;;;5071839;28;20537;-71
2022/11/04 11:36:19;;;;;;;58.90;3.40;;;15.00;99.90;;;;;;5071824;28;20454;-71
2022/11/04 11:39:04;;;;;;;61.37;3.90;;;14.90;99.90;;;;;;5071029;28;20998;-71
2022/11/04 11:41:33;;;;;;;60.13;2.90;;;14.40;99.90;;;;;;5071592;28;20448;-71
2022/11/04 11:44:06;;;;;;;62.70;3.60;;;14.20;99.90;;;;;;5071676;28;20443;-71
2022/11/04 11:46:35;;;;;;;59.90;3.30;;;14.30;99.90;;;;;;5071672;28;20451;-71
2022/11/04 11:49:04;;;;;;;59.40;3.10;;;14.30;99.90;;;;;;5070796;28;20484;-72
2022/11/04 11:51:33;;;;;;;59.77;3.37;;;14.20;99.90;;;;;;5071467;28;20965;-71
2022/11/04 11:54:15;;;;;;;59.50;3.20;;;14.20;99.90;;;;;;5071364;28;20450;-71
2022/11/04 11:56:44;;;;;;;64.33;3.57;;;14.80;99.90;;;;;;5071616;28;20455;-71
2022/11/04 11:59:20;;;;;;;60.67;3.70;;;15.70;99.90;;;;;;5070756;28;20440;-71
2022/11/04 12:01:52;;;;;;;62.17;4.13;;;16.40;99.90;;;;;;5071588;28;20541;-71
2022/11/04 12:04:20;;;;;;;61.50;3.67;;;16.20;99.90;;;;;;5071358;28;20488;-71
2022/11/04 12:06:57;;;;;;;58.53;3.40;;;15.50;99.90;;;;;;5071242;28;20483;-71
2022/11/04 12:09:32;;;;;;;59.17;3.77;;;15.30;99.90;;;;;;5070708;28;20479;-72
2022/11/04 12:12:08;;;;;;;60.30;4.17;;;15.40;99.90;;;;;;5071404;28;20446;-71
2022/11/04 12:14:48;;;;;;;60.10;3.40;;;15.20;99.90;;;;;;5071316;28;20451;-71
2022/11/04 12:17:27;;;;;;;59.73;3.10;;;15.20;99.90;;;;;;5071521;28;20461;-71
2022/11/04 12:20:08;;;;;;;59.33;3.80;;;15.40;99.90;;;;;;5070686;28;20864;-71
2022/11/04 12:22:40;;;;;;;59.87;2.90;;;15.30;99.90;;;;;;5071252;28;20883;-71
2022/11/04 12:25:16;;;;;;;61.37;4.00;;;15.30;99.90;;;;;;5071107;28;20454;-71
2022/11/04 12:27:49;;;;;;;60.73;2.80;;;15.90;99.90;;;;;;5073875;28;20481;-71
2022/11/04 12:30:20;;;;;;;60.13;3.03;;;15.30;99.90;;;;;;5074297;28;20483;-71
2022/11/04 12:33:03;;;;;;;59.17;3.30;;;14.80;99.90;;;;;;5074874;28;20447;-72
2022/11/04 12:35:49;;;;;;;62.30;3.53;;;14.80;99.90;;;;;;5074713;28;20447;-71
2022/11/04 12:38:47;;;;;;;59.07;3.10;;;15.30;99.90;;;;;;5074418;28;21003;-71
2022/11/04 12:41:23;;;;;;;59.60;3.10;;;15.70;99.90;;;;;;5074660;28;20956;-71
2022/11/04 12:43:59;;;;;;;61.00;3.53;;;16.30;99.90;;;;;;5074592;28;20442;-71
2022/11/04 12:46:36;;;;;;;61.80;3.30;;;16.80;99.90;;;;;;5074815;28;20446;-71
2022/11/04 12:49:38;;;;;;;61.33;3.10;;;17.30;99.90;;;;;;5073771;28;20450;-71
2022/11/04 12:52:15;;;;;;;60.90;3.10;;;17.70;99.90;;;;;;5042117;28;20451;-71
2022/11/04 12:54:58;;;;;;;61.23;3.80;;;17.50;99.90;;;;;;5074680;28;20508;-71
2022/11/04 12:57:34;;;;;;;59.70;3.20;;;17.20;99.90;;;;;;5074366;28;20474;-72
2022/11/04 13:00:13;;;;;;;65.90;3.67;;;17.40;99.90;;;;;;5073598;28;20876;-73
2022/11/04 13:02:46;;;;;;;60.27;3.00;;;17.30;99.90;;;;;;5074205;28;20439;-71
2022/11/04 13:05:32;;;;;;;61.37;4.20;;;16.90;99.90;;;;;;5074488;28;20836;-71
2022/11/04 13:08:07;;;;;;;60.67;3.50;;;17.20;99.90;;;;;;5074189;28;20558;-71
2022/11/04 13:10:40;;;;;;;59.40;3.33;;;17.10;99.90;;;;;;5073642;28;20488;-72
2022/11/04 13:13:10;;;;;;;63.47;3.60;;;17.40;99.90;;;;;;5074506;28;20466;-72
2022/11/04 13:15:44;;;;;;;58.60;3.23;;;17.70;99.90;;;;;;5074223;28;20457;-71
2022/11/04 13:18:17;;;;;;;60.77;3.13;;;17.60;99.90;;;;;;5073945;28;20995;-72
2022/11/04 13:20:51;;;;;;;61.40;3.30;;;17.50;99.90;;;;;;5073579;28;20452;-71
2022/11/04 13:23:24;;;;;;;64.20;3.87;;;17.70;99.90;;;;;;5073950;28;20463;-72
2022/11/04 13:25:53;;;;;;;59.57;3.27;;;17.90;99.90;;;;;;5073834;28;20534;-71
2022/11/04 13:28:22;;;;;;;62.00;4.13;;;18.00;99.90;;;;;;5073853;28;20469;-71
2022/11/04 13:30:58;;;;;;;61.47;3.70;;;17.80;99.90;;;;;;5073049;28;20578;-71
2022/11/04 13:33:36;;;;;;;59.53;3.53;;;17.60;99.90;;;;;;5074146;28;20455;-71
2022/11/04 13:36:12;;;;;;;59.40;3.40;;;17.30;99.90;;;;;;5073520;28;20443;-72
2022/11/04 13:38:43;;;;;;;60.70;3.50;;;17.20;99.90;;;;;;5072736;28;20485;-71